createdAt,value
2019-05-07T00:00:59.764Z,52.10
2019-05-07T00:03:29.085Z,51.90
2019-05-07T00:05:58.408Z,52.00
2019-05-07T00:08:27.684Z,51.80
2019-05-07T00:10:56.950Z,51.70
2019-05-07T00:13:26.192Z,51.80
2019-05-07T00:15:55.598Z,52.00
2019-05-07T00:18:24.902Z,51.90
2019-05-07T00:20:54.255Z,51.90
2019-05-07T00:23:23.713Z,51.70
2019-05-07T00:25:53.056Z,51.80
2019-05-07T00:28:23.063Z,52.00
2019-05-07T00:30:52.539Z,52.00
2019-05-07T00:33:22.868Z,51.80
2019-05-07T00:36:09.596Z,51.50
2019-05-07T00:38:42.762Z,51.60
2019-05-07T00:41:31.877Z,51.60
2019-05-07T00:44:03.226Z,51.70
2019-05-07T00:46:32.991Z,51.90
2019-05-07T00:49:02.492Z,51.70
2019-05-07T00:51:33.795Z,51.70
2019-05-07T00:54:05.529Z,52.40
2019-05-07T00:56:34.773Z,51.90
2019-05-07T00:59:04.221Z,51.90
2019-05-07T01:01:34.547Z,52.10
2019-05-07T01:04:03.870Z,52.20
2019-05-07T01:06:33.276Z,52.00
2019-05-07T01:09:03.432Z,52.10
2019-05-07T01:11:33.498Z,52.00
2019-05-07T01:14:03.183Z,52.20
2019-05-07T01:16:33.879Z,52.10
2019-05-07T01:19:03.055Z,51.90
2019-05-07T01:21:32.613Z,51.70
2019-05-07T01:24:03.272Z,51.80
2019-05-07T01:26:35.096Z,51.60
2019-05-07T01:29:04.324Z,51.60
2019-05-07T01:31:43.176Z,51.70
2019-05-07T01:34:44.007Z,51.90
2019-05-07T01:37:13.439Z,52.00
2019-05-07T01:39:42.781Z,51.90
2019-05-07T01:42:12.733Z,51.80
2019-05-07T01:44:42.262Z,51.70
2019-05-07T01:47:13.071Z,51.70
2019-05-07T01:49:42.626Z,51.70
2019-05-07T01:52:13.286Z,51.80
2019-05-07T01:54:42.779Z,51.70
2019-05-07T01:57:12.263Z,52.10
2019-05-07T01:59:42.746Z,53.20
2019-05-07T02:02:24.007Z,52.40
2019-05-07T02:05:12.256Z,52.10
2019-05-07T02:07:47.207Z,52.20
2019-05-07T02:10:35.646Z,52.00
2019-05-07T02:13:05.069Z,52.20
2019-05-07T02:15:34.525Z,52.10
2019-05-07T02:18:04.486Z,52.30
2019-05-07T02:20:33.801Z,52.50
2019-05-07T02:23:03.060Z,52.50
2019-05-07T02:25:32.908Z,52.50
2019-05-07T02:28:02.539Z,52.80
2019-05-07T02:30:34.931Z,53.60
2019-05-07T02:33:03.761Z,53.70
2019-05-07T02:35:33.973Z,53.80
2019-05-07T02:38:13.875Z,53.60
2019-05-07T02:40:54.344Z,53.50
2019-05-07T02:43:29.346Z,53.60
2019-05-07T02:46:25.682Z,55.00
2019-05-07T02:49:16.913Z,55.40
2019-05-07T02:51:55.362Z,55.90
2019-05-07T02:54:43.860Z,55.40
2019-05-07T02:57:16.906Z,55.60
2019-05-07T02:59:44.389Z,56.30
2019-05-07T03:02:14.035Z,55.80
2019-05-07T03:04:43.764Z,55.80
2019-05-07T03:07:13.356Z,55.70
2019-05-07T03:09:43.297Z,55.20
2019-05-07T03:12:13.444Z,54.90
2019-05-07T03:14:43.758Z,55.80
2019-05-07T03:17:13.943Z,56.00
2019-05-07T03:19:45.137Z,55.40
2019-05-07T03:22:14.473Z,55.10
2019-05-07T03:24:54.534Z,55.60
2019-05-07T03:27:23.882Z,55.90
2019-05-07T03:30:04.288Z,55.10
2019-05-07T03:32:40.230Z,55.60
2019-05-07T03:35:28.681Z,55.40
2019-05-07T03:37:58.234Z,55.90
2019-05-07T03:40:29.192Z,55.80
2019-05-07T03:43:01.862Z,55.90
2019-05-07T03:45:48.509Z,56.00
2019-05-07T03:48:23.918Z,56.00
2019-05-07T03:50:53.518Z,55.70
2019-05-07T03:53:23.436Z,55.70
2019-05-07T03:55:54.047Z,55.90
2019-05-07T03:58:24.111Z,55.30
2019-05-07T04:00:53.867Z,54.90
2019-05-07T04:03:24.825Z,54.60
2019-05-07T04:05:54.187Z,54.90
2019-05-07T04:08:24.012Z,54.80
2019-05-07T04:10:53.942Z,55.40
2019-05-07T04:13:24.532Z,55.20
2019-05-07T04:15:54.292Z,55.40
2019-05-07T04:18:24.060Z,55.90
2019-05-07T04:20:55.371Z,55.50
2019-05-07T04:23:24.638Z,56.20
2019-05-07T04:26:00.337Z,56.40
2019-05-07T04:29:05.736Z,56.40
2019-05-07T04:31:39.009Z,57.40
2019-05-07T04:34:19.495Z,57.00
2019-05-07T04:36:53.138Z,56.80
2019-05-07T04:39:23.141Z,57.60
2019-05-07T04:41:53.012Z,56.50
2019-05-07T04:44:23.687Z,57.00
2019-05-07T04:46:53.447Z,58.00
2019-05-07T04:49:24.029Z,57.60
2019-05-07T04:52:18.492Z,58.40
2019-05-07T04:54:47.836Z,57.70
2019-05-07T04:57:28.153Z,59.20
2019-05-07T05:00:03.004Z,57.80
2019-05-07T05:02:39.363Z,57.90
2019-05-07T05:05:08.777Z,57.90
2019-05-07T05:07:38.105Z,58.10
2019-05-07T05:10:07.526Z,58.20
2019-05-07T05:12:42.626Z,58.20
2019-05-07T05:15:12.633Z,57.50
2019-05-07T05:17:49.983Z,57.30
2019-05-07T05:20:14.324Z,57.00
2019-05-07T05:23:05.947Z,57.50
2019-05-07T05:25:37.883Z,56.80
2019-05-07T05:28:07.386Z,56.90
2019-05-07T05:30:42.722Z,57.00
2019-05-07T05:33:12.751Z,57.40
2019-05-07T05:35:43.201Z,57.10
2019-05-07T05:38:13.279Z,57.50
2019-05-07T05:40:42.923Z,56.90
2019-05-07T05:43:28.482Z,56.80
2019-05-07T05:46:02.538Z,57.60
2019-05-07T05:48:33.127Z,56.80
2019-05-07T05:51:08.936Z,57.40
2019-05-07T05:53:52.483Z,59.10
2019-05-07T05:56:42.667Z,59.80
2019-05-07T05:59:47.908Z,60.30
2019-05-07T06:02:28.049Z,59.10
2019-05-07T06:05:34.376Z,59.10
2019-05-07T06:08:09.447Z,59.60
2019-05-07T06:10:49.326Z,59.20
2019-05-07T06:13:24.381Z,60.20
2019-05-07T06:15:59.442Z,60.00
2019-05-07T06:18:53.771Z,60.40
2019-05-07T06:21:42.103Z,60.10
2019-05-07T06:24:13.499Z,59.90
2019-05-07T06:26:42.728Z,60.00
2019-05-07T06:29:12.150Z,60.20
2019-05-07T06:31:42.199Z,60.10
2019-05-07T06:34:14.048Z,60.10
2019-05-07T06:36:43.497Z,60.10
2019-05-07T06:39:19.108Z,60.10
2019-05-07T06:42:06.149Z,59.70
2019-05-07T06:44:36.111Z,59.90
2019-05-07T06:47:05.625Z,59.70
2019-05-07T06:49:34.994Z,59.30
2019-05-07T06:52:04.418Z,59.20
2019-05-07T06:54:33.701Z,59.40
2019-05-07T06:57:03.129Z,58.80
2019-05-07T06:59:38.097Z,58.10
2019-05-07T07:02:28.340Z,57.30
2019-05-07T07:05:02.973Z,57.10
2019-05-07T07:07:38.118Z,56.80
2019-05-07T07:10:32.224Z,56.20
2019-05-07T07:13:02.465Z,56.00
2019-05-07T07:15:32.413Z,55.80
2019-05-07T07:18:03.275Z,55.50
2019-05-07T07:20:33.172Z,55.60
2019-05-07T07:23:02.593Z,55.40
2019-05-07T07:25:32.586Z,55.00
2019-05-07T07:28:02.751Z,55.30
2019-05-07T07:30:54.540Z,54.70
2019-05-07T07:33:26.811Z,54.50
2019-05-07T07:35:56.115Z,54.70
2019-05-07T07:38:35.173Z,54.30
2019-05-07T07:41:29.658Z,54.10
2019-05-07T07:43:59.109Z,54.00
2019-05-07T07:46:28.369Z,53.90
2019-05-07T07:49:07.893Z,54.00
2019-05-07T07:51:40.653Z,53.70
2019-05-07T07:53:59.575Z,53.10
2019-05-07T07:56:52.243Z,53.30
2019-05-07T07:59:37.921Z,53.10
2019-05-07T08:02:15.680Z,53.40
2019-05-07T08:04:45.032Z,53.20
2019-05-07T08:07:14.366Z,53.10
2019-05-07T08:09:43.661Z,53.00
2019-05-07T08:12:14.257Z,53.10
2019-05-07T08:14:43.703Z,53.60
2019-05-07T08:17:13.291Z,53.10
2019-05-07T08:19:43.080Z,52.90
2019-05-07T08:22:13.412Z,52.50
2019-05-07T08:24:42.864Z,52.50
2019-05-07T08:27:14.748Z,52.80
2019-05-07T08:29:43.335Z,52.80
2019-05-07T08:32:32.633Z,52.60
2019-05-07T08:35:08.374Z,52.80
2019-05-07T08:37:37.965Z,51.60
2019-05-07T08:40:07.973Z,51.10
2019-05-07T08:42:37.279Z,51.10
2019-05-07T08:45:28.540Z,50.90
2019-05-07T08:48:01.996Z,51.00
2019-05-07T08:50:32.637Z,51.00
2019-05-07T08:53:02.825Z,50.40
2019-05-07T08:55:32.364Z,50.90
2019-05-07T08:58:02.226Z,50.30
2019-05-07T09:00:32.569Z,49.90
2019-05-07T09:03:02.164Z,50.30
2019-05-07T09:05:32.388Z,50.20
2019-05-07T09:08:02.874Z,49.90
2019-05-07T09:10:32.613Z,48.90
2019-05-07T09:13:02.880Z,48.40
2019-05-07T09:15:32.388Z,48.50
2019-05-07T09:18:02.106Z,48.40
2019-05-07T09:20:32.663Z,48.40
2019-05-07T09:23:02.226Z,48.10
2019-05-07T09:25:35.460Z,48.30
2019-05-07T09:28:04.879Z,48.60
2019-05-07T09:30:52.484Z,48.70
2019-05-07T09:33:42.274Z,48.60
2019-05-07T09:36:22.756Z,48.10
2019-05-07T09:38:56.830Z,48.10
2019-05-07T09:41:29.282Z,47.40
2019-05-07T09:43:58.964Z,47.40
2019-05-07T09:46:28.287Z,47.00
2019-05-07T09:48:57.635Z,46.60
2019-05-07T09:51:26.995Z,46.60
2019-05-07T09:53:56.447Z,45.90
2019-05-07T09:56:25.843Z,45.70
2019-05-07T09:58:55.298Z,45.20
2019-05-07T10:01:24.568Z,45.40
2019-05-07T10:03:54.195Z,44.90
2019-05-07T10:06:25.490Z,44.60
2019-05-07T10:08:54.596Z,46.10
2019-05-07T10:11:33.526Z,45.40
2019-05-07T10:14:33.051Z,44.90
2019-05-07T10:17:25.195Z,44.60
2019-05-07T10:19:54.616Z,45.10
2019-05-07T10:22:24.071Z,43.60
2019-05-07T10:24:53.621Z,43.20
2019-05-07T10:27:23.095Z,43.70
2019-05-07T10:30:02.429Z,44.80
2019-05-07T10:32:54.188Z,44.20
2019-05-07T10:35:23.743Z,43.80
2019-05-07T10:37:53.176Z,44.10
2019-05-07T10:40:22.665Z,44.10
2019-05-07T10:42:52.216Z,44.30
2019-05-07T10:45:42.166Z,44.30
2019-05-07T10:48:29.257Z,44.90
2019-05-07T10:50:59.287Z,44.70
2019-05-07T10:53:28.697Z,45.80
2019-05-07T10:55:59.658Z,43.90
2019-05-07T16:03:36.809Z,38.40
2019-05-07T16:06:07.334Z,38.60
2019-05-07T16:08:42.713Z,38.70
2019-05-07T16:11:12.598Z,39.20
2019-05-07T16:13:52.119Z,37.50
2019-05-07T16:16:21.558Z,38.40
2019-05-07T16:19:12.495Z,41.80
2019-05-07T16:21:42.717Z,38.80
2019-05-07T16:24:12.162Z,38.80
2019-05-07T16:26:42.351Z,38.60
2019-05-07T16:29:13.212Z,37.90
2019-05-07T16:31:44.225Z,37.80
2019-05-07T16:34:13.735Z,37.40
2019-05-07T16:36:43.118Z,37.00
2019-05-07T16:39:12.332Z,40.30
2019-05-07T16:41:42.246Z,40.00
2019-05-07T16:44:12.381Z,41.50
2019-05-07T16:46:42.645Z,41.50
2019-05-07T16:49:12.299Z,39.20
2019-05-07T16:51:44.444Z,39.20
2019-05-07T16:54:12.459Z,41.30
2019-05-07T16:57:02.874Z,39.80
2019-05-07T16:59:32.350Z,39.10
2019-05-07T17:02:07.022Z,41.00
2019-05-07T17:04:36.303Z,39.50
2019-05-07T17:07:07.255Z,40.50
2019-05-07T17:09:36.507Z,38.90
2019-05-07T17:12:08.711Z,39.20
2019-05-07T17:14:38.059Z,39.00
2019-05-07T17:17:07.389Z,39.60
2019-05-07T17:19:36.756Z,41.50
2019-05-07T17:22:06.588Z,41.20
2019-05-07T17:24:36.681Z,40.90
2019-05-07T17:27:05.887Z,42.10
2019-05-07T17:29:35.135Z,39.50
2019-05-07T17:32:04.475Z,39.10
2019-05-07T17:34:33.735Z,39.10
2019-05-07T17:37:03.054Z,40.20
2019-05-07T17:39:32.350Z,40.70
2019-05-07T17:42:02.582Z,42.40
2019-05-07T17:44:33.232Z,40.50
2019-05-07T17:47:03.401Z,42.00
2019-05-07T17:49:33.994Z,41.60
2019-05-07T17:52:03.813Z,41.90
2019-05-07T17:54:33.156Z,42.50
2019-05-07T17:57:02.397Z,41.60
2019-05-07T17:59:32.181Z,42.20
2019-05-07T18:02:32.246Z,41.50
2019-05-07T18:05:02.874Z,42.10
2019-05-07T18:07:33.111Z,41.60
2019-05-07T18:10:04.689Z,42.00
2019-05-07T18:12:34.078Z,41.20
2019-05-07T18:15:03.417Z,41.40
2019-05-07T18:18:00.157Z,42.50
2019-05-07T18:20:28.560Z,42.70
2019-05-07T18:22:57.879Z,42.90
2019-05-07T18:25:27.126Z,42.50
2019-05-07T18:27:56.313Z,42.00
2019-05-07T18:30:25.627Z,41.60
2019-05-07T18:33:16.788Z,43.30
2019-05-07T18:35:48.084Z,43.20
2019-05-07T18:38:17.262Z,42.40
2019-05-07T18:40:46.605Z,43.00
2019-05-07T18:43:16.067Z,43.00
2019-05-07T18:45:45.422Z,42.50
2019-05-07T18:48:16.350Z,43.30
2019-05-07T18:50:45.657Z,43.20
2019-05-07T18:53:14.993Z,43.30
2019-05-07T18:55:44.327Z,43.40
2019-05-07T18:58:13.559Z,43.80
2019-05-07T19:00:46.889Z,42.80
2019-05-07T19:03:16.263Z,43.20
2019-05-07T19:05:45.666Z,43.80
2019-05-07T19:08:14.928Z,44.00
2019-05-07T19:10:44.153Z,43.80
2019-05-07T19:13:13.402Z,43.80
2019-05-07T19:15:42.665Z,43.90
2019-05-07T19:18:12.195Z,44.30
2019-05-07T19:20:42.189Z,43.50
2019-05-07T19:23:12.068Z,43.90
2019-05-07T19:25:42.093Z,43.70
2019-05-07T19:28:14.914Z,43.30
2019-05-07T19:30:43.006Z,43.90
2019-05-07T19:33:12.472Z,43.60
2019-05-07T19:35:42.006Z,43.60
2019-05-07T19:38:11.259Z,43.60
2019-05-07T19:40:42.632Z,44.70
2019-05-07T19:43:12.304Z,44.70
2019-05-07T19:45:41.891Z,44.50
2019-05-07T19:48:12.435Z,44.20
2019-05-07T19:50:43.502Z,44.10
2019-05-07T19:53:12.706Z,44.30
2019-05-07T19:56:01.918Z,44.70
2019-05-07T19:58:32.712Z,44.50
2019-05-07T20:01:03.071Z,44.50
2019-05-07T20:03:32.305Z,45.10
2019-05-07T20:06:02.441Z,45.00
2019-05-07T20:08:32.480Z,45.20
2019-05-07T20:11:12.091Z,44.70
2019-05-07T20:13:43.635Z,44.90
2019-05-07T20:16:16.232Z,44.90
2019-05-07T20:18:45.525Z,44.60
2019-05-07T20:21:27.420Z,45.00
2019-05-07T20:23:56.741Z,45.20
2019-05-07T20:26:26.275Z,45.60
2019-05-07T20:28:55.583Z,45.20
2019-05-07T20:31:24.939Z,45.70
2019-05-07T20:33:54.732Z,45.40
2019-05-07T20:36:24.019Z,45.70
2019-05-07T20:38:53.273Z,45.70
2019-05-07T20:41:23.286Z,45.30
2019-05-07T20:43:53.034Z,45.70
2019-05-07T20:46:22.346Z,45.70
2019-05-07T20:48:52.602Z,46.00
2019-05-07T20:51:23.224Z,45.80
2019-05-07T20:54:22.706Z,45.80
2019-05-07T20:57:02.270Z,45.60
2019-05-07T20:59:32.748Z,45.60
2019-05-07T21:02:02.453Z,45.70
2019-05-07T21:04:33.011Z,45.70
2019-05-07T21:07:02.968Z,46.00
2019-05-07T21:09:32.967Z,45.70
2019-05-07T21:12:02.364Z,45.70
2019-05-07T21:14:32.483Z,45.80
2019-05-07T21:17:01.966Z,46.20
2019-05-07T21:19:33.102Z,45.90
2019-05-07T21:22:02.270Z,45.90
2019-05-07T21:24:33.065Z,46.10
2019-05-07T21:27:02.754Z,46.00
2019-05-07T21:29:32.821Z,46.20
2019-05-07T21:32:03.332Z,46.00
2019-05-07T21:34:33.014Z,46.00
2019-05-07T21:37:03.231Z,46.10
2019-05-07T21:39:33.115Z,45.90
2019-05-07T21:42:02.745Z,46.00
2019-05-07T21:44:32.644Z,45.90
2019-05-07T21:47:03.951Z,46.20
2019-05-07T21:49:33.340Z,46.30
2019-05-07T21:52:02.732Z,46.20
2019-05-07T21:55:02.227Z,46.00
2019-05-07T21:57:47.422Z,46.40
2019-05-07T22:00:23.193Z,46.50
2019-05-07T22:02:53.011Z,46.20
2019-05-07T22:05:22.540Z,46.30
2019-05-07T22:07:54.151Z,46.60
2019-05-07T22:10:23.103Z,46.30
2019-05-07T22:12:54.603Z,46.40
2019-05-07T22:15:23.261Z,46.40
2019-05-07T22:17:52.438Z,46.40
2019-05-07T22:20:21.738Z,46.70
2019-05-07T22:22:52.139Z,46.40
2019-05-07T22:25:22.157Z,46.80
2019-05-07T22:27:52.960Z,47.10
2019-05-07T22:30:29.405Z,47.00
2019-05-07T22:33:04.249Z,46.70
2019-05-07T22:35:39.995Z,47.10
2019-05-07T22:38:09.223Z,46.90
2019-05-07T22:40:38.500Z,47.00
2019-05-07T22:43:07.721Z,46.90
2019-05-07T22:45:36.953Z,46.80
2019-05-07T22:48:06.151Z,47.00
2019-05-07T22:50:35.433Z,47.00
2019-05-07T22:53:04.705Z,46.90
2019-05-07T22:55:34.029Z,47.30
2019-05-07T22:58:14.176Z,47.00
2019-05-07T23:00:50.491Z,47.00
2019-05-07T23:03:19.904Z,47.10
2019-05-07T23:05:49.134Z,47.10
2019-05-07T23:08:18.381Z,47.20
2019-05-07T23:10:47.627Z,47.20
2019-05-07T23:13:16.884Z,47.00
2019-05-07T23:15:46.335Z,47.30
2019-05-07T23:18:16.307Z,46.70
2019-05-07T23:20:45.565Z,47.10
2019-05-07T23:23:15.257Z,47.00
2019-05-07T23:25:44.455Z,47.20
2019-05-07T23:28:13.776Z,47.40
2019-05-07T23:30:44.326Z,47.50
2019-05-07T23:33:14.335Z,47.30
2019-05-07T23:35:43.606Z,47.40
2019-05-07T23:38:15.753Z,47.60
2019-05-07T23:41:02.112Z,47.60
2019-05-07T23:43:32.582Z,47.50
2019-05-07T23:46:02.509Z,47.40
2019-05-07T23:48:32.234Z,47.70
2019-05-07T23:51:02.292Z,47.90
2019-05-07T23:53:31.692Z,47.70
2019-05-07T23:56:02.842Z,47.80
2019-05-07T23:58:32.644Z,47.70
